CYGX

Gillam Airport

Gillam, Manitoba, Canada
TAF CYGX 241838Z 2419/2507 14008KT P6SM SCT015 BKN070 TEMPO 2419/2501 P6SM -SHRA BKN015 OVC070 BECMG 2421/2423 35007KT FM250100 34007KT P6SM -SHRA SCT007 OVC030 TEMPO 2501/2507 4SM -RA BR OVC007 RMK NXT FCST BY 250100Z
Issued Valid From Valid To
Sep-24 @ 18:38 UTC
(an hour ago)
Sep-24 @ 19:00 UTC
(52 minutes ago)
Sep-25 @ 07:00 UTC
(in 11 hours)
Sep-24 @ 19:00 to Sep-24 @ 21:00
TAF CYGX 241838Z 2419/2507 14008KT P6SM SCT015 BKN070
Wind Visibility Clouds
140° at 8 knots Greater than 6 miles
  • Scattered at 1,500' AGL
  • Broken at 7,000' AGL
Temporary Sep-24 @ 19:00 to Sep-25 @ 01:00
TEMPO 2419/2501 P6SM -SHRA BKN015 OVC070
Visibility Clouds Conditions
Greater than 6 miles
  • Broken at 1,500' AGL
  • Overcast at 7,000' AGL
  • Light Rain
Becoming Sep-24 @ 21:00 to Sep-25 @ 01:00
BECMG 2421/2423 35007KT
Wind Visibility Clouds
350° at 7 knots Greater than 6 miles
  • Scattered at 1,500' AGL
  • Broken at 7,000' AGL
Temporary Sep-25 @ 01:00 to Sep-25 @ 07:00
TEMPO 2501/2507 4SM -RA BR OVC007 RMK NXT FCST BY 250100Z
Visibility Clouds Conditions
4 miles
  • Overcast at 700' AGL
  • Light Rain
  • Mist
From Sep-25 @ 01:00 to Sep-25 @ 07:00
FM250100 34007KT P6SM -SHRA SCT007 OVC030
Wind Visibility Clouds Conditions
340° at 7 knots Greater than 6 miles
  • Scattered at 700' AGL
  • Overcast at 3,000' AGL
  • Light Rain
TAF CYGX 241838Z 2419/2507 14008KT P6SM SCT015 BKN070 TEMPO 2419/2501 P6SM -SHRA BKN015 OVC070 BECMG 2421/2423 35007KT FM250100 34007KT P6SM -SHRA SCT007 OVC030 TEMPO 2501/2507 4SM -RA BR OVC007 RMK NXT FCST BY 250100Z
Issued Sep-24 @ 18:38 UTC
(an hour ago)
Valid From Sep-24 @ 19:00 UTC
(52 minutes ago)
Valid To Sep-25 @ 07:00 UTC
(in 11 hours)
Sep-24 @ 19:00 - Sep-24 @ 21:00
Wind Visibility
140° at 8 knots Greater than 6 miles
Clouds
  • Scattered at 1,500' AGL
  • Broken at 7,000' AGL
Temporary Sep-24 @ 19:00 - Sep-25 @ 01:00
Clouds
  • Broken at 1,500' AGL
  • Overcast at 7,000' AGL
Conditions
  • Light Rain
Becoming Sep-24 @ 21:00 - Sep-25 @ 01:00
Wind Visibility
350° at 7 knots Greater than 6 miles
Clouds
  • Scattered at 1,500' AGL
  • Broken at 7,000' AGL
Temporary Sep-25 @ 01:00 - Sep-25 @ 07:00
Clouds
  • Overcast at 700' AGL
Conditions
  • Light Rain
  • Mist
From Sep-25 @ 01:00 - Sep-25 @ 07:00
Wind Visibility
340° at 7 knots Greater than 6 miles
Clouds
  • Scattered at 700' AGL
  • Overcast at 3,000' AGL
Conditions
  • Light Rain